sensor_id;sensor_type;location;lat;lon;timestamp;P1;durP1;ratioP1;P2;durP2;ratioP2
60318;SDS011;46163;52.306;5.634;2024-02-14T00:34:14;4.65;;;3.40;;
60318;SDS011;46163;52.306;5.634;2024-02-14T00:57:57;3.45;;;3.08;;
60318;SDS011;46163;52.306;5.634;2024-02-14T01:08:10;3.28;;;3.00;;
60318;SDS011;46163;52.306;5.634;2024-02-14T01:22:27;3.42;;;3.13;;
60318;SDS011;46163;52.306;5.634;2024-02-14T01:25:03;4.40;;;4.00;;
60318;SDS011;46163;52.306;5.634;2024-02-14T02:03:18;6.68;;;5.25;;
60318;SDS011;46163;52.306;5.634;2024-02-14T02:09:49;5.60;;;5.00;;
60318;SDS011;46163;52.306;5.634;2024-02-14T02:29:49;5.28;;;4.78;;
60318;SDS011;46163;52.306;5.634;2024-02-14T02:36:55;6.65;;;5.65;;
60318;SDS011;46163;52.306;5.634;2024-02-14T02:40:06;5.78;;;5.18;;
60318;SDS011;46163;52.306;5.634;2024-02-14T02:50:26;5.82;;;5.22;;
60318;SDS011;46163;52.306;5.634;2024-02-14T03:04:31;6.03;;;5.47;;
60318;SDS011;46163;52.306;5.634;2024-02-14T03:14:13;6.57;;;5.60;;
60318;SDS011;46163;52.306;5.634;2024-02-14T03:21:21;5.57;;;5.07;;
60318;SDS011;46163;52.306;5.634;2024-02-14T03:27:50;4.95;;;4.50;;
60318;SDS011;46163;52.306;5.634;2024-02-14T03:44:58;5.43;;;4.93;;
60318;SDS011;46163;52.306;5.634;2024-02-14T04:20:15;7.80;;;6.22;;
60318;SDS011;46163;52.306;5.634;2024-02-14T04:26:28;7.43;;;6.32;;
60318;SDS011;46163;52.306;5.634;2024-02-14T04:47:09;13.93;;;8.40;;
60318;SDS011;46163;52.306;5.634;2024-02-14T04:54:10;9.63;;;7.72;;
60318;SDS011;46163;52.306;5.634;2024-02-14T04:57:31;13.65;;;8.07;;
60318;SDS011;46163;52.306;5.634;2024-02-14T05:07:44;10.80;;;7.95;;
60318;SDS011;46163;52.306;5.634;2024-02-14T05:10:30;13.32;;;7.47;;
60318;SDS011;46163;52.306;5.634;2024-02-14T05:14:06;11.52;;;7.57;;
60318;SDS011;46163;52.306;5.634;2024-02-14T05:20:58;9.80;;;7.50;;
60318;SDS011;46163;52.306;5.634;2024-02-14T05:24:05;12.75;;;6.82;;
60318;SDS011;46163;52.306;5.634;2024-02-14T05:27:11;13.52;;;7.40;;
60318;SDS011;46163;52.306;5.634;2024-02-14T05:37:19;9.82;;;7.22;;
60318;SDS011;46163;52.306;5.634;2024-02-14T05:50:53;14.52;;;7.97;;
60318;SDS011;46163;52.306;5.634;2024-02-14T06:07:46;12.27;;;7.95;;
60318;SDS011;46163;52.306;5.634;2024-02-14T06:14:10;13.25;;;7.75;;
60318;SDS011;46163;52.306;5.634;2024-02-14T06:17:24;12.90;;;8.40;;
60318;SDS011;46163;52.306;5.634;2024-02-14T06:24:13;10.15;;;8.10;;
60318;SDS011;46163;52.306;5.634;2024-02-14T07:24:02;5.20;;;4.70;;
60318;SDS011;46163;52.306;5.634;2024-02-14T07:31:02;7.90;;;5.97;;
60318;SDS011;46163;52.306;5.634;2024-02-14T07:38:00;14.95;;;8.88;;
60318;SDS011;46163;52.306;5.634;2024-02-14T07:51:02;12.23;;;9.38;;
60318;SDS011;46163;52.306;5.634;2024-02-14T07:57:36;12.00;;;10.05;;
60318;SDS011;46163;52.306;5.634;2024-02-14T08:35:21;14.98;;;10.80;;
60318;SDS011;46163;52.306;5.634;2024-02-14T08:38:31;17.00;;;10.63;;
60318;SDS011;46163;52.306;5.634;2024-02-14T08:41:28;13.32;;;9.88;;
60318;SDS011;46163;52.306;5.634;2024-02-14T08:44:34;13.57;;;11.63;;
60318;SDS011;46163;52.306;5.634;2024-02-14T09:11:40;12.00;;;10.00;;
60318;SDS011;46163;52.306;5.634;2024-02-14T09:25:22;10.70;;;8.88;;
60318;SDS011;46163;52.306;5.634;2024-02-14T09:28:35;10.90;;;9.27;;
60318;SDS011;46163;52.306;5.634;2024-02-14T09:34:56;13.15;;;9.23;;
60318;SDS011;46163;52.306;5.634;2024-02-14T09:58:36;8.35;;;6.93;;
60318;SDS011;46163;52.306;5.634;2024-02-14T10:01:01;8.70;;;6.43;;
60318;SDS011;46163;52.306;5.634;2024-02-14T10:03:27;6.75;;;6.15;;
60318;SDS011;46163;52.306;5.634;2024-02-14T10:05:52;7.55;;;6.57;;
60318;SDS011;46163;52.306;5.634;2024-02-14T10:08:18;6.55;;;5.95;;
60318;SDS011;46163;52.306;5.634;2024-02-14T10:10:45;7.05;;;6.43;;
60318;SDS011;46163;52.306;5.634;2024-02-14T10:13:11;8.48;;;6.85;;
60318;SDS011;46163;52.306;5.634;2024-02-14T10:15:36;7.43;;;6.40;;
60318;SDS011;46163;52.306;5.634;2024-02-14T10:18:02;7.53;;;5.80;;
60318;SDS011;46163;52.306;5.634;2024-02-14T10:20:28;7.07;;;5.88;;
60318;SDS011;46163;52.306;5.634;2024-02-14T10:25:55;6.68;;;5.85;;
60318;SDS011;46163;52.306;5.634;2024-02-14T10:28:21;8.27;;;6.90;;
60318;SDS011;46163;52.306;5.634;2024-02-14T10:30:47;8.00;;;6.25;;
60318;SDS011;46163;52.306;5.634;2024-02-14T10:33:15;7.22;;;6.55;;
60318;SDS011;46163;52.306;5.634;2024-02-14T10:35:41;7.72;;;6.82;;
60318;SDS011;46163;52.306;5.634;2024-02-14T10:38:07;8.68;;;7.80;;
60318;SDS011;46163;52.306;5.634;2024-02-14T10:40:34;8.53;;;7.63;;
60318;SDS011;46163;52.306;5.634;2024-02-14T10:43:01;10.27;;;9.02;;
60318;SDS011;46163;52.306;5.634;2024-02-14T10:45:27;9.38;;;8.40;;
60318;SDS011;46163;52.306;5.634;2024-02-14T10:47:56;9.35;;;8.43;;
60318;SDS011;46163;52.306;5.634;2024-02-14T10:50:22;11.43;;;9.32;;
60318;SDS011;46163;52.306;5.634;2024-02-14T10:52:49;15.30;;;8.48;;
60318;SDS011;46163;52.306;5.634;2024-02-14T10:55:18;10.73;;;9.63;;
60318;SDS011;46163;52.306;5.634;2024-02-14T10:57:51;9.90;;;8.90;;
60318;SDS011;46163;52.306;5.634;2024-02-14T11:00:19;11.07;;;9.88;;
60318;SDS011;46163;52.306;5.634;2024-02-14T11:02:45;10.32;;;9.30;;
60318;SDS011;46163;52.306;5.634;2024-02-14T11:05:15;13.52;;;10.02;;
60318;SDS011;46163;52.306;5.634;2024-02-14T11:07:44;12.40;;;9.70;;
60318;SDS011;46163;52.306;5.634;2024-02-14T11:10:20;11.05;;;9.57;;
60318;SDS011;46163;52.306;5.634;2024-02-14T11:12:47;10.73;;;9.23;;
60318;SDS011;46163;52.306;5.634;2024-02-14T11:15:22;9.52;;;8.63;;
60318;SDS011;46163;52.306;5.634;2024-02-14T11:17:50;9.55;;;8.55;;
60318;SDS011;46163;52.306;5.634;2024-02-14T11:22:56;8.80;;;7.93;;
60318;SDS011;46163;52.306;5.634;2024-02-14T11:25:23;9.48;;;7.78;;
60318;SDS011;46163;52.306;5.634;2024-02-14T11:27:54;9.95;;;7.80;;
60318;SDS011;46163;52.306;5.634;2024-02-14T11:30:31;9.88;;;8.23;;
60318;SDS011;46163;52.306;5.634;2024-02-14T11:35:41;8.88;;;7.97;;
60318;SDS011;46163;52.306;5.634;2024-02-14T11:38:08;8.23;;;7.38;;
60318;SDS011;46163;52.306;5.634;2024-02-14T11:40:34;9.27;;;7.50;;
60318;SDS011;46163;52.306;5.634;2024-02-14T11:43:00;10.27;;;8.80;;
60318;SDS011;46163;52.306;5.634;2024-02-14T11:45:26;9.15;;;8.35;;
60318;SDS011;46163;52.306;5.634;2024-02-14T11:47:52;9.35;;;8.27;;
60318;SDS011;46163;52.306;5.634;2024-02-14T11:50:18;8.90;;;7.93;;
60318;SDS011;46163;52.306;5.634;2024-02-14T11:52:44;8.40;;;7.60;;
60318;SDS011;46163;52.306;5.634;2024-02-14T11:55:09;7.80;;;7.00;;
60318;SDS011;46163;52.306;5.634;2024-02-14T11:57:35;8.07;;;6.90;;
60318;SDS011;46163;52.306;5.634;2024-02-14T12:00:01;7.68;;;6.88;;
60318;SDS011;46163;52.306;5.634;2024-02-14T12:02:27;7.55;;;6.32;;
60318;SDS011;46163;52.306;5.634;2024-02-14T12:04:53;7.93;;;7.18;;
60318;SDS011;46163;52.306;5.634;2024-02-14T12:07:21;8.32;;;7.15;;
60318;SDS011;46163;52.306;5.634;2024-02-14T12:09:47;7.53;;;6.75;;
60318;SDS011;46163;52.306;5.634;2024-02-14T12:12:14;6.82;;;6.20;;
60318;SDS011;46163;52.306;5.634;2024-02-14T12:14:40;6.75;;;6.05;;
60318;SDS011;46163;52.306;5.634;2024-02-14T12:19:34;9.35;;;6.50;;
60318;SDS011;46163;52.306;5.634;2024-02-14T12:22:02;7.45;;;6.72;;
60318;SDS011;46163;52.306;5.634;2024-02-14T12:24:36;7.28;;;6.57;;
60318;SDS011;46163;52.306;5.634;2024-02-14T12:27:03;6.85;;;6.25;;
60318;SDS011;46163;52.306;5.634;2024-02-14T12:29:29;7.87;;;7.03;;
60318;SDS011;46163;52.306;5.634;2024-02-14T12:32:07;7.13;;;6.45;;
60318;SDS011;46163;52.306;5.634;2024-02-14T12:36:59;11.82;;;6.72;;
60318;SDS011;46163;52.306;5.634;2024-02-14T12:39:28;8.27;;;7.18;;
60318;SDS011;46163;52.306;5.634;2024-02-14T12:41:54;7.30;;;6.63;;
60318;SDS011;46163;52.306;5.634;2024-02-14T12:44:20;8.05;;;7.25;;
60318;SDS011;46163;52.306;5.634;2024-02-14T12:46:45;8.88;;;7.78;;
60318;SDS011;46163;52.306;5.634;2024-02-14T12:49:11;8.85;;;7.47;;
60318;SDS011;46163;52.306;5.634;2024-02-14T12:51:36;8.02;;;7.07;;
60318;SDS011;46163;52.306;5.634;2024-02-14T12:54:03;10.50;;;6.97;;
60318;SDS011;46163;52.306;5.634;2024-02-14T12:56:29;7.72;;;6.93;;
60318;SDS011;46163;52.306;5.634;2024-02-14T12:58:54;10.38;;;7.63;;
60318;SDS011;46163;52.306;5.634;2024-02-14T13:01:20;7.53;;;6.80;;
60318;SDS011;46163;52.306;5.634;2024-02-14T13:03:45;8.48;;;7.35;;
60318;SDS011;46163;52.306;5.634;2024-02-14T13:06:11;8.27;;;6.95;;
60318;SDS011;46163;52.306;5.634;2024-02-14T13:08:36;6.65;;;6.05;;
60318;SDS011;46163;52.306;5.634;2024-02-14T13:11:04;7.10;;;6.30;;
60318;SDS011;46163;52.306;5.634;2024-02-14T13:13:30;6.18;;;5.57;;
60318;SDS011;46163;52.306;5.634;2024-02-14T13:15:55;7.07;;;6.13;;
60318;SDS011;46163;52.306;5.634;2024-02-14T13:18:21;6.15;;;5.50;;
60318;SDS011;46163;52.306;5.634;2024-02-14T13:20:46;6.43;;;5.57;;
60318;SDS011;46163;52.306;5.634;2024-02-14T13:23:12;7.45;;;6.75;;
60318;SDS011;46163;52.306;5.634;2024-02-14T13:25:39;6.53;;;5.50;;
60318;SDS011;46163;52.306;5.634;2024-02-14T13:28:04;6.30;;;5.50;;
60318;SDS011;46163;52.306;5.634;2024-02-14T13:30:31;6.88;;;5.40;;
60318;SDS011;46163;52.306;5.634;2024-02-14T13:32:56;7.38;;;5.70;;
60318;SDS011;46163;52.306;5.634;2024-02-14T13:35:22;5.30;;;4.80;;
60318;SDS011;46163;52.306;5.634;2024-02-14T13:37:48;4.47;;;4.07;;
60318;SDS011;46163;52.306;5.634;2024-02-14T13:40:14;5.10;;;4.60;;
60318;SDS011;46163;52.306;5.634;2024-02-14T13:42:39;5.20;;;4.65;;
60318;SDS011;46163;52.306;5.634;2024-02-14T13:45:05;5.10;;;4.60;;
60318;SDS011;46163;52.306;5.634;2024-02-14T13:47:37;5.28;;;4.63;;
60318;SDS011;46163;52.306;5.634;2024-02-14T13:50:07;4.53;;;4.13;;
60318;SDS011;46163;52.306;5.634;2024-02-14T13:52:33;3.95;;;3.55;;
60318;SDS011;46163;52.306;5.634;2024-02-14T13:54:59;4.55;;;3.90;;
60318;SDS011;46163;52.306;5.634;2024-02-14T13:57:27;4.22;;;3.83;;
60318;SDS011;46163;52.306;5.634;2024-02-14T13:59:54;4.30;;;3.90;;
60318;SDS011;46163;52.306;5.634;2024-02-14T14:02:20;3.95;;;3.63;;
60318;SDS011;46163;52.306;5.634;2024-02-14T14:04:45;4.20;;;3.85;;
60318;SDS011;46163;52.306;5.634;2024-02-14T14:07:11;4.55;;;4.15;;
60318;SDS011;46163;52.306;5.634;2024-02-14T14:09:36;5.95;;;4.15;;
60318;SDS011;46163;52.306;5.634;2024-02-14T14:12:02;5.13;;;3.75;;
60318;SDS011;46163;52.306;5.634;2024-02-14T14:14:28;5.18;;;3.60;;
60318;SDS011;46163;52.306;5.634;2024-02-14T14:16:55;4.10;;;3.70;;
60318;SDS011;46163;52.306;5.634;2024-02-14T14:19:20;4.20;;;3.85;;
60318;SDS011;46163;52.306;5.634;2024-02-14T14:21:46;4.90;;;4.10;;
60318;SDS011;46163;52.306;5.634;2024-02-14T14:24:11;7.18;;;4.60;;
60318;SDS011;46163;52.306;5.634;2024-02-14T14:26:37;4.75;;;4.35;;
60318;SDS011;46163;52.306;5.634;2024-02-14T14:29:03;4.88;;;4.43;;
60318;SDS011;46163;52.306;5.634;2024-02-14T14:31:28;4.40;;;4.00;;
60318;SDS011;46163;52.306;5.634;2024-02-14T14:33:54;5.85;;;4.53;;
60318;SDS011;46163;52.306;5.634;2024-02-14T14:36:19;4.72;;;4.25;;
60318;SDS011;46163;52.306;5.634;2024-02-14T14:38:45;6.80;;;4.57;;
60318;SDS011;46163;52.306;5.634;2024-02-14T14:41:12;4.93;;;4.43;;
60318;SDS011;46163;52.306;5.634;2024-02-14T14:43:37;4.90;;;4.50;;
60318;SDS011;46163;52.306;5.634;2024-02-14T14:46:04;6.00;;;4.50;;
60318;SDS011;46163;52.306;5.634;2024-02-14T14:48:29;5.18;;;4.68;;
60318;SDS011;46163;52.306;5.634;2024-02-14T14:50:55;5.38;;;4.88;;
60318;SDS011;46163;52.306;5.634;2024-02-14T14:53:20;4.70;;;4.30;;
60318;SDS011;46163;52.306;5.634;2024-02-14T14:55:55;4.78;;;4.35;;
60318;SDS011;46163;52.306;5.634;2024-02-14T14:58:22;6.03;;;4.22;;
60318;SDS011;46163;52.306;5.634;2024-02-14T15:00:55;6.05;;;4.63;;
60318;SDS011;46163;52.306;5.634;2024-02-14T15:03:22;4.78;;;4.38;;
60318;SDS011;46163;52.306;5.634;2024-02-14T15:05:48;6.07;;;4.82;;
60318;SDS011;46163;52.306;5.634;2024-02-14T15:08:14;6.95;;;6.03;;
60318;SDS011;46163;52.306;5.634;2024-02-14T15:10:40;7.05;;;5.28;;
60318;SDS011;46163;52.306;5.634;2024-02-14T15:13:08;5.43;;;4.93;;
60318;SDS011;46163;52.306;5.634;2024-02-14T15:15:34;6.28;;;5.25;;
60318;SDS011;46163;52.306;5.634;2024-02-14T15:18:00;6.03;;;4.97;;
60318;SDS011;46163;52.306;5.634;2024-02-14T15:20:26;5.40;;;4.88;;
60318;SDS011;46163;52.306;5.634;2024-02-14T15:22:51;6.18;;;5.57;;
60318;SDS011;46163;52.306;5.634;2024-02-14T15:25:17;6.18;;;5.20;;
60318;SDS011;46163;52.306;5.634;2024-02-14T15:27:43;7.05;;;6.30;;
60318;SDS011;46163;52.306;5.634;2024-02-14T15:30:23;7.15;;;6.00;;
60318;SDS011;46163;52.306;5.634;2024-02-14T15:33:07;6.72;;;6.13;;
60318;SDS011;46163;52.306;5.634;2024-02-14T15:35:52;5.72;;;5.15;;
60318;SDS011;46163;52.306;5.634;2024-02-14T15:38:20;5.97;;;5.22;;
60318;SDS011;46163;52.306;5.634;2024-02-14T15:40:46;5.13;;;4.68;;
60318;SDS011;46163;52.306;5.634;2024-02-14T15:43:13;6.78;;;5.00;;
60318;SDS011;46163;52.306;5.634;2024-02-14T15:45:39;5.63;;;4.57;;
60318;SDS011;46163;52.306;5.634;2024-02-14T15:48:05;4.75;;;4.30;;
60318;SDS011;46163;52.306;5.634;2024-02-14T15:50:32;5.57;;;4.53;;
60318;SDS011;46163;52.306;5.634;2024-02-14T15:52:58;5.65;;;5.00;;
60318;SDS011;46163;52.306;5.634;2024-02-14T15:55:24;5.60;;;5.05;;
60318;SDS011;46163;52.306;5.634;2024-02-14T15:57:49;5.18;;;4.47;;
60318;SDS011;46163;52.306;5.634;2024-02-14T16:00:15;5.25;;;4.75;;
60318;SDS011;46163;52.306;5.634;2024-02-14T16:02:41;5.90;;;4.70;;
60318;SDS011;46163;52.306;5.634;2024-02-14T16:05:09;5.45;;;4.10;;
60318;SDS011;46163;52.306;5.634;2024-02-14T16:07:35;4.72;;;4.28;;
60318;SDS011;46163;52.306;5.634;2024-02-14T16:10:01;5.68;;;4.65;;
60318;SDS011;46163;52.306;5.634;2024-02-14T16:12:27;5.53;;;4.53;;
60318;SDS011;46163;52.306;5.634;2024-02-14T16:14:53;5.57;;;5.07;;
60318;SDS011;46163;52.306;5.634;2024-02-14T16:17:19;6.32;;;5.57;;
60318;SDS011;46163;52.306;5.634;2024-02-14T16:19:44;6.05;;;5.45;;
60318;SDS011;46163;52.306;5.634;2024-02-14T16:22:09;5.28;;;4.78;;
60318;SDS011;46163;52.306;5.634;2024-02-14T16:24:35;5.45;;;4.95;;
60318;SDS011;46163;52.306;5.634;2024-02-14T16:27:01;5.75;;;5.25;;
60318;SDS011;46163;52.306;5.634;2024-02-14T16:29:27;5.15;;;4.63;;
60318;SDS011;46163;52.306;5.634;2024-02-14T16:31:52;6.72;;;5.35;;
60318;SDS011;46163;52.306;5.634;2024-02-14T16:34:18;9.50;;;5.55;;
60318;SDS011;46163;52.306;5.634;2024-02-14T16:36:44;6.05;;;5.13;;
60318;SDS011;46163;52.306;5.634;2024-02-14T16:39:09;8.27;;;6.05;;
60318;SDS011;46163;52.306;5.634;2024-02-14T16:41:35;6.15;;;5.55;;
60318;SDS011;46163;52.306;5.634;2024-02-14T16:44:02;6.35;;;5.57;;
60318;SDS011;46163;52.306;5.634;2024-02-14T16:46:28;5.93;;;5.32;;
60318;SDS011;46163;52.306;5.634;2024-02-14T16:48:53;5.53;;;5.03;;
60318;SDS011;46163;52.306;5.634;2024-02-14T16:51:19;5.70;;;5.20;;
60318;SDS011;46163;52.306;5.634;2024-02-14T16:53:45;6.40;;;5.20;;
60318;SDS011;46163;52.306;5.634;2024-02-14T16:56:12;5.95;;;5.35;;
60318;SDS011;46163;52.306;5.634;2024-02-14T16:58:37;6.90;;;5.95;;
60318;SDS011;46163;52.306;5.634;2024-02-14T17:01:03;7.57;;;5.93;;
60318;SDS011;46163;52.306;5.634;2024-02-14T17:03:29;8.13;;;6.45;;
60318;SDS011;46163;52.306;5.634;2024-02-14T17:05:55;6.05;;;5.40;;
60318;SDS011;46163;52.306;5.634;2024-02-14T17:08:20;5.32;;;4.82;;
60318;SDS011;46163;52.306;5.634;2024-02-14T17:10:46;5.07;;;4.57;;
60318;SDS011;46163;52.306;5.634;2024-02-14T17:13:11;6.75;;;4.88;;
60318;SDS011;46163;52.306;5.634;2024-02-14T17:15:40;5.25;;;4.78;;
60318;SDS011;46163;52.306;5.634;2024-02-14T17:18:05;5.15;;;4.40;;
60318;SDS011;46163;52.306;5.634;2024-02-14T17:20:30;6.25;;;4.75;;
60318;SDS011;46163;52.306;5.634;2024-02-14T17:22:56;6.45;;;4.60;;
60318;SDS011;46163;52.306;5.634;2024-02-14T17:25:22;5.00;;;4.45;;
60318;SDS011;46163;52.306;5.634;2024-02-14T17:27:47;5.13;;;4.63;;
60318;SDS011;46163;52.306;5.634;2024-02-14T17:30:13;5.65;;;4.80;;
60318;SDS011;46163;52.306;5.634;2024-02-14T17:32:38;7.72;;;4.65;;
60318;SDS011;46163;52.306;5.634;2024-02-14T17:35:10;7.20;;;4.97;;
60318;SDS011;46163;52.306;5.634;2024-02-14T17:37:36;5.90;;;5.28;;
60318;SDS011;46163;52.306;5.634;2024-02-14T17:40:02;7.85;;;5.95;;
60318;SDS011;46163;52.306;5.634;2024-02-14T17:42:29;6.20;;;5.27;;
60318;SDS011;46163;52.306;5.634;2024-02-14T17:44:54;7.72;;;5.90;;
60318;SDS011;46163;52.306;5.634;2024-02-14T17:47:20;13.10;;;6.50;;
60318;SDS011;46163;52.306;5.634;2024-02-14T17:49:45;12.35;;;6.18;;
60318;SDS011;46163;52.306;5.634;2024-02-14T17:52:12;7.10;;;5.63;;
60318;SDS011;46163;52.306;5.634;2024-02-14T17:54:42;7.47;;;6.20;;
60318;SDS011;46163;52.306;5.634;2024-02-14T17:57:09;8.73;;;5.60;;
60318;SDS011;46163;52.306;5.634;2024-02-14T17:59:35;7.20;;;6.13;;
60318;SDS011;46163;52.306;5.634;2024-02-14T18:02:00;10.73;;;6.65;;
60318;SDS011;46163;52.306;5.634;2024-02-14T18:04:27;8.38;;;6.22;;
60318;SDS011;46163;52.306;5.634;2024-02-14T18:06:54;10.15;;;7.20;;
60318;SDS011;46163;52.306;5.634;2024-02-14T18:09:19;9.45;;;7.72;;
60318;SDS011;46163;52.306;5.634;2024-02-14T18:11:45;8.48;;;7.50;;
60318;SDS011;46163;52.306;5.634;2024-02-14T18:14:10;12.93;;;6.82;;
60318;SDS011;46163;52.306;5.634;2024-02-14T18:16:36;12.02;;;7.70;;
60318;SDS011;46163;52.306;5.634;2024-02-14T18:19:01;8.80;;;6.90;;
60318;SDS011;46163;52.306;5.634;2024-02-14T18:21:27;8.25;;;6.60;;
60318;SDS011;46163;52.306;5.634;2024-02-14T18:23:52;8.73;;;6.45;;
60318;SDS011;46163;52.306;5.634;2024-02-14T18:26:17;10.15;;;7.13;;
60318;SDS011;46163;52.306;5.634;2024-02-14T18:28:43;7.00;;;5.90;;
60318;SDS011;46163;52.306;5.634;2024-02-14T18:31:08;7.00;;;6.30;;
60318;SDS011;46163;52.306;5.634;2024-02-14T18:33:37;16.13;;;6.90;;
60318;SDS011;46163;52.306;5.634;2024-02-14T18:36:03;11.93;;;6.95;;
60318;SDS011;46163;52.306;5.634;2024-02-14T18:38:29;12.20;;;6.45;;
60318;SDS011;46163;52.306;5.634;2024-02-14T18:40:57;10.65;;;7.15;;
60318;SDS011;46163;52.306;5.634;2024-02-14T18:45:50;9.20;;;5.93;;
60318;SDS011;46163;52.306;5.634;2024-02-14T18:48:16;7.95;;;6.07;;
60318;SDS011;46163;52.306;5.634;2024-02-14T18:50:41;10.23;;;6.80;;
60318;SDS011;46163;52.306;5.634;2024-02-14T18:53:07;12.85;;;7.55;;
60318;SDS011;46163;52.306;5.634;2024-02-14T18:55:32;10.20;;;7.45;;
60318;SDS011;46163;52.306;5.634;2024-02-14T18:57:58;8.60;;;7.28;;
60318;SDS011;46163;52.306;5.634;2024-02-14T19:00:24;12.68;;;7.53;;
60318;SDS011;46163;52.306;5.634;2024-02-14T19:02:50;11.73;;;7.50;;
60318;SDS011;46163;52.306;5.634;2024-02-14T19:05:15;14.48;;;8.70;;
60318;SDS011;46163;52.306;5.634;2024-02-14T19:07:41;14.30;;;8.52;;
60318;SDS011;46163;52.306;5.634;2024-02-14T19:10:06;11.88;;;8.75;;
60318;SDS011;46163;52.306;5.634;2024-02-14T19:12:32;11.30;;;8.90;;
60318;SDS011;46163;52.306;5.634;2024-02-14T19:14:58;13.55;;;9.52;;
60318;SDS011;46163;52.306;5.634;2024-02-14T19:17:27;13.32;;;9.85;;
60318;SDS011;46163;52.306;5.634;2024-02-14T19:19:53;12.38;;;9.82;;
60318;SDS011;46163;52.306;5.634;2024-02-14T19:22:19;13.90;;;10.82;;
60318;SDS011;46163;52.306;5.634;2024-02-14T19:24:45;15.55;;;10.43;;
60318;SDS011;46163;52.306;5.634;2024-02-14T19:27:10;11.90;;;9.15;;
60318;SDS011;46163;52.306;5.634;2024-02-14T19:29:36;10.57;;;9.55;;
60318;SDS011;46163;52.306;5.634;2024-02-14T19:32:01;16.67;;;9.27;;
60318;SDS011;46163;52.306;5.634;2024-02-14T19:34:27;11.15;;;8.93;;
60318;SDS011;46163;52.306;5.634;2024-02-14T19:36:53;9.73;;;8.70;;
60318;SDS011;46163;52.306;5.634;2024-02-14T19:39:19;15.63;;;10.02;;
60318;SDS011;46163;52.306;5.634;2024-02-14T19:41:44;10.10;;;9.07;;
60318;SDS011;46163;52.306;5.634;2024-02-14T19:44:10;15.80;;;9.75;;
60318;SDS011;46163;52.306;5.634;2024-02-14T19:46:35;16.45;;;12.75;;
60318;SDS011;46163;52.306;5.634;2024-02-14T19:49:01;13.30;;;11.35;;
60318;SDS011;46163;52.306;5.634;2024-02-14T19:51:29;16.55;;;9.77;;
60318;SDS011;46163;52.306;5.634;2024-02-14T19:53:55;11.32;;;10.13;;
60318;SDS011;46163;52.306;5.634;2024-02-14T19:56:20;11.77;;;9.82;;
60318;SDS011;46163;52.306;5.634;2024-02-14T19:58:46;10.57;;;8.63;;
60318;SDS011;46163;52.306;5.634;2024-02-14T20:01:12;10.43;;;8.23;;
60318;SDS011;46163;52.306;5.634;2024-02-14T20:03:37;12.23;;;8.65;;
60318;SDS011;46163;52.306;5.634;2024-02-14T20:06:03;11.90;;;7.93;;
60318;SDS011;46163;52.306;5.634;2024-02-14T20:08:30;8.45;;;7.65;;
60318;SDS011;46163;52.306;5.634;2024-02-14T20:10:55;8.90;;;7.43;;
60318;SDS011;46163;52.306;5.634;2024-02-14T20:13:22;9.07;;;7.68;;
60318;SDS011;46163;52.306;5.634;2024-02-14T20:15:48;14.57;;;8.13;;
60318;SDS011;46163;52.306;5.634;2024-02-14T20:18:13;8.40;;;7.28;;
60318;SDS011;46163;52.306;5.634;2024-02-14T20:20:39;8.88;;;7.75;;
60318;SDS011;46163;52.306;5.634;2024-02-14T20:23:05;8.88;;;7.55;;
60318;SDS011;46163;52.306;5.634;2024-02-14T20:25:31;10.88;;;9.07;;
60318;SDS011;46163;52.306;5.634;2024-02-14T20:27:56;13.65;;;9.00;;
60318;SDS011;46163;52.306;5.634;2024-02-14T20:30:23;11.82;;;9.40;;
60318;SDS011;46163;52.306;5.634;2024-02-14T20:32:53;11.40;;;9.13;;
60318;SDS011;46163;52.306;5.634;2024-02-14T20:35:19;14.07;;;8.38;;
60318;SDS011;46163;52.306;5.634;2024-02-14T20:37:44;8.77;;;7.85;;
60318;SDS011;46163;52.306;5.634;2024-02-14T20:40:11;11.25;;;8.70;;
60318;SDS011;46163;52.306;5.634;2024-02-14T20:42:40;13.15;;;9.27;;
60318;SDS011;46163;52.306;5.634;2024-02-14T20:45:08;10.60;;;7.57;;
60318;SDS011;46163;52.306;5.634;2024-02-14T20:47:35;12.80;;;7.70;;
60318;SDS011;46163;52.306;5.634;2024-02-14T20:50:01;8.93;;;8.02;;
60318;SDS011;46163;52.306;5.634;2024-02-14T20:52:26;9.98;;;8.07;;
60318;SDS011;46163;52.306;5.634;2024-02-14T20:54:55;13.02;;;8.15;;
60318;SDS011;46163;52.306;5.634;2024-02-14T20:57:21;9.38;;;8.40;;
60318;SDS011;46163;52.306;5.634;2024-02-14T20:59:47;12.13;;;8.77;;
60318;SDS011;46163;52.306;5.634;2024-02-14T21:02:13;11.80;;;8.63;;
60318;SDS011;46163;52.306;5.634;2024-02-14T21:04:38;11.05;;;8.93;;
60318;SDS011;46163;52.306;5.634;2024-02-14T21:07:04;10.13;;;7.93;;
60318;SDS011;46163;52.306;5.634;2024-02-14T21:09:29;10.25;;;8.07;;
60318;SDS011;46163;52.306;5.634;2024-02-14T21:11:55;9.32;;;7.88;;
60318;SDS011;46163;52.306;5.634;2024-02-14T21:14:20;9.38;;;7.20;;
60318;SDS011;46163;52.306;5.634;2024-02-14T21:16:46;10.50;;;7.40;;
60318;SDS011;46163;52.306;5.634;2024-02-14T21:19:12;9.23;;;8.07;;
60318;SDS011;46163;52.306;5.634;2024-02-14T21:21:37;10.75;;;7.80;;
60318;SDS011;46163;52.306;5.634;2024-02-14T21:24:03;9.07;;;7.40;;
60318;SDS011;46163;52.306;5.634;2024-02-14T21:26:29;9.73;;;7.72;;
60318;SDS011;46163;52.306;5.634;2024-02-14T21:28:54;11.43;;;7.72;;
60318;SDS011;46163;52.306;5.634;2024-02-14T21:31:20;9.35;;;7.03;;
60318;SDS011;46163;52.306;5.634;2024-02-14T21:33:48;10.10;;;8.40;;
60318;SDS011;46163;52.306;5.634;2024-02-14T21:36:14;10.65;;;7.50;;
60318;SDS011;46163;52.306;5.634;2024-02-14T21:38:40;11.70;;;7.47;;
60318;SDS011;46163;52.306;5.634;2024-02-14T21:41:06;9.82;;;7.35;;
60318;SDS011;46163;52.306;5.634;2024-02-14T21:43:31;11.45;;;7.78;;
60318;SDS011;46163;52.306;5.634;2024-02-14T21:45:57;14.55;;;7.25;;
60318;SDS011;46163;52.306;5.634;2024-02-14T21:48:23;9.52;;;7.88;;
60318;SDS011;46163;52.306;5.634;2024-02-14T21:50:49;9.38;;;8.10;;
60318;SDS011;46163;52.306;5.634;2024-02-14T21:53:14;11.43;;;9.05;;
60318;SDS011;46163;52.306;5.634;2024-02-14T21:55:40;10.23;;;7.97;;
60318;SDS011;46163;52.306;5.634;2024-02-14T21:58:06;10.55;;;8.40;;
60318;SDS011;46163;52.306;5.634;2024-02-14T22:00:31;17.48;;;10.20;;
60318;SDS011;46163;52.306;5.634;2024-02-14T22:02:57;20.35;;;10.48;;
60318;SDS011;46163;52.306;5.634;2024-02-14T22:05:25;14.07;;;10.65;;
60318;SDS011;46163;52.306;5.634;2024-02-14T22:07:52;11.35;;;9.15;;
60318;SDS011;46163;52.306;5.634;2024-02-14T22:10:18;10.80;;;8.93;;
60318;SDS011;46163;52.306;5.634;2024-02-14T22:12:44;10.82;;;9.07;;
60318;SDS011;46163;52.306;5.634;2024-02-14T22:15:11;13.32;;;9.68;;
60318;SDS011;46163;52.306;5.634;2024-02-14T22:17:37;13.00;;;9.40;;
60318;SDS011;46163;52.306;5.634;2024-02-14T22:20:03;10.38;;;8.48;;
60318;SDS011;46163;52.306;5.634;2024-02-14T22:22:34;8.85;;;7.68;;
60318;SDS011;46163;52.306;5.634;2024-02-14T22:25:00;13.10;;;7.05;;
60318;SDS011;46163;52.306;5.634;2024-02-14T22:27:26;8.82;;;7.38;;
60318;SDS011;46163;52.306;5.634;2024-02-14T22:29:52;10.90;;;7.65;;
60318;SDS011;46163;52.306;5.634;2024-02-14T22:32:17;9.05;;;8.10;;
60318;SDS011;46163;52.306;5.634;2024-02-14T22:34:43;14.63;;;8.35;;
60318;SDS011;46163;52.306;5.634;2024-02-14T22:37:08;10.65;;;7.57;;
60318;SDS011;46163;52.306;5.634;2024-02-14T22:39:34;16.25;;;8.63;;
60318;SDS011;46163;52.306;5.634;2024-02-14T22:41:59;16.10;;;8.82;;
60318;SDS011;46163;52.306;5.634;2024-02-14T22:44:25;10.80;;;8.43;;
60318;SDS011;46163;52.306;5.634;2024-02-14T22:46:50;16.02;;;8.60;;
60318;SDS011;46163;52.306;5.634;2024-02-14T22:49:18;10.38;;;8.48;;
60318;SDS011;46163;52.306;5.634;2024-02-14T22:51:44;11.23;;;8.40;;
60318;SDS011;46163;52.306;5.634;2024-02-14T22:54:10;11.45;;;7.97;;
60318;SDS011;46163;52.306;5.634;2024-02-14T22:56:35;13.48;;;8.75;;
60318;SDS011;46163;52.306;5.634;2024-02-14T22:59:00;13.43;;;8.30;;